Flight Track Log - Related Links

Times and Time Zones

All times are in EDT time to prevent confusion due to time zone crossing. See the AAL1316 flight status page for this flight to view local times or setup timezone preferences in your user account.

Time Position Orientation Groundspeed Altitude Reporting Facility
EDT Latitude Longitude Course Direction KTS MPH feet Rate Location/Type
Sat 10:37:53 PM 32.8697 -97.0304 180° South 159 183 2,400  Level FlightAware ADS-B
Sat 10:38:14 PM 32.8475 -97.0302 180° South 186 214 2,800 1,600 Climbing FlightAware ADS-B
Sat 10:38:53 PM 32.8105 -97.0303 180° South 223 257 4,000 2,136 Climbing FlightAware ADS-B
Sat 10:39:13 PM 32.7988 -97.0303 176° South 232 267 4,900 2,195 Climbing FlightAware ADS-B
Sat 10:39:34 PM 32.7695 -97.0188 137° Southeast 254 292 5,500 1,692 Climbing FlightAware ADS-B
Sat 10:39:52 PM 32.7589 -96.9916 99° East 282 325 6,000 2,154 Climbing FlightAware ADS-B
Sat 10:40:13 PM 32.7590 -96.9737 89° East 292 336 6,900 923 Climbing FlightAware ADS-B
Sat 10:40:31 PM 32.7590 -96.9737 87° East 289 333 6,600 514 Descending FlightAware ADS-B
Sat 10:40:48 PM 32.7597 -96.9378 89° East 293 337 7,200 2,432 Climbing FlightAware ADS-B
Sat 10:41:08 PM 32.7597 -96.9245 89° East 299 344 8,100 2,167 Climbing FlightAware ADS-B
Sat 10:41:24 PM 32.7598 -96.8934 89° East 303 349 8,500 3,652 Climbing FlightAware ADS-B
Sat 10:41:54 PM 32.7601 -96.7888 90° East 336 387 10,900 3,281 Climbing FlightAware ADS-B
Sat 10:42:28 PM 32.7605 -96.7212 90° East 371 427 12,000 1,853 Climbing FlightAware ADS-B
Sat 10:43:02 PM 32.7606 -96.6509 90° East 386 444 13,000 2,156 Climbing FlightAware ADS-B
Sat 10:43:32 PM 32.7607 -96.5847 90° East 400 460 14,300 2,735 Climbing FlightAware ADS-B
Sat 10:44:10 PM 32.7609 -96.5014 90° East 408 470 16,100 2,571 Climbing FlightAware ADS-B
Sat 10:45:45 PM 32.7541 -96.2876 100° East 436 502 20,000 2,448 Climbing FlightAware ADS-B (KHOU)
Sat 10:46:15 PM 32.7425 -96.2128 100° East 444 511 21,200 2,300 Climbing FlightAware ADS-B (KHOU)
Sat 10:46:45 PM 32.7310 -96.1395 100° East 452 520 22,300 2,136 Climbing FlightAware ADS-B (KHOU)
Sat 10:47:14 PM 32.7192 -96.0645 100° East 461 531 23,300 2,136 Climbing FlightAware ADS-B (KHOU)
Sat 10:47:44 PM 32.7075 -95.9908 100° East 468 539 24,400 2,100 Climbing FlightAware ADS-B (KHOU)
Sat 10:48:14 PM 32.6954 -95.9145 100° East 473 544 25,400 2,000 Climbing FlightAware ADS-B (KHOU)
Sat 10:48:41 PM 32.6844 -95.8457 100° East 476 548 26,300 1,800 Climbing FlightAware ADS-B (KHOU)
Sat 10:49:44 PM 32.6602 -95.6795 95° East 489 563 28,100 1,677 Climbing FlightAware ADS-B (KHOU)
Sat 10:50:14 PM 32.6601 -95.6026 85° East 496 571 28,900 1,500 Climbing FlightAware ADS-B (KHOU)
Sat 10:50:44 PM 32.6655 -95.5255 85° East 500 575 29,600 1,867 Climbing FlightAware ADS-B (KHOU)
Sat 10:51:44 PM 32.6771 -95.3576 85° East 494 568 31,700 1,933 Climbing FlightAware ADS-B (KHOU)
Sat 10:52:14 PM 32.6824 -95.2765 85° East 493 567 32,500 1,600 Climbing FlightAware ADS-B (KHOU)
Sat 10:52:44 PM 32.6876 -95.1981 85° East 493 567 33,300 1,714 Climbing FlightAware ADS-B (KHOU)
Sat 10:52:49 PM 32.6884 -95.1843 87° East 493 567 33,500 1,750 Climbing FlightAware ADS-B
Sat 10:53:08 PM 32.6852 -95.1329 92° East 491 565 34,000 1,548 Climbing FlightAware ADS-B (KHOU)
Sat 10:53:20 PM 32.6828 -95.1206 105° East 490 564 34,300 1,412 Climbing FlightAware ADS-B
Sat 10:53:42 PM 32.6626 -95.0607 115° Southeast 485 558 34,800 1,500 Climbing FlightAware ADS-B (KHOU)
Sat 10:53:44 PM 32.6555 -95.0432 116° Southeast 486 559 34,900 1,688 Climbing FlightAware ADS-B
Sat 10:54:14 PM 32.6262 -94.9701 115° Southeast 484 557 35,700 1,474 Climbing FlightAware ADS-B (KHOU)
Sat 10:54:41 PM 32.6011 -94.9072 114° Southeast 480 552 36,300 1,412 Climbing FlightAware ADS-B
Sat 10:54:48 PM 32.5936 -94.8886 115° Southeast 483 556 36,500 1,400 Climbing FlightAware ADS-B
Sat 10:55:11 PM 32.5723 -94.8355 116° Southeast 481 554 37,000 1,375 Climbing FlightAware ADS-B
Sat 10:55:36 PM 32.5466 -94.7733 116° Southeast 478 550 37,600 1,400 Climbing FlightAware ADS-B
Sat 10:55:41 PM 32.5438 -94.7667 116° Southeast 478 550 37,700 1,200 Climbing FlightAware ADS-B
Sat 10:56:11 PM 32.5147 -94.6969 116° Southeast 476 548 38,300 1,200 Climbing FlightAware ADS-B
Sat 10:56:41 PM 32.4854 -94.6265 116° Southeast 472 543 38,900 1,050 Climbing FlightAware ADS-B
Sat 10:56:51 PM 32.4740 -94.5991 116° Southeast 473 544 39,000 150 Climbing FlightAware ADS-B
Sat 10:57:21 PM 32.4452 -94.5301 116° Southeast 472 543 39,000  Level FlightAware ADS-B
Sat 10:58:01 PM 32.4091 -94.4413 116° Southeast 471 542 39,000  Level FlightAware ADS-B
Sat 10:58:22 PM 32.3923 -94.4012 116° Southeast 470 541 39,000  Level FlightAware ADS-B
Sat 10:58:51 PM 32.3598 -94.3241 116° Southeast 469 540 39,000  Level FlightAware ADS-B
Sat 10:59:04 PM 32.3543 -94.3110 116° Southeast 469 540 39,000  Level FlightAware ADS-B
Sat 10:59:20 PM 32.3316 -94.2570 116° Southeast 468 539 39,000  Level FlightAware ADS-B
Sat 10:59:40 PM 32.3112 -94.2088 116° Southeast 468 539 39,000  Level FlightAware ADS-B
Sat 10:59:51 PM 32.3055 -94.1950 116° Southeast 467 537 39,000  Level FlightAware ADS-B
Sat 11:00:10 PM 32.2870 -94.1512 116° Southeast 468 539 39,000  Level FlightAware ADS-B
Sat 11:00:21 PM 32.2880 -94.1535 116° Southeast 467 537 39,000  Level FlightAware ADS-B
Sat 11:00:41 PM 32.2536 -94.0717 116° Southeast 468 539 39,000  Level FlightAware ADS-B
Sat 11:00:51 PM 32.2435 -94.0480 116° Southeast 467 537 39,000  Level FlightAware ADS-B
Sat 11:01:21 PM 32.2159 -93.9825 117° Southeast 468 539 39,000  Level FlightAware ADS-B
Sat 11:01:41 PM 32.2029 -93.9519 116° Southeast 468 539 39,000  Level FlightAware ADS-B
Sat 11:02:01 PM 32.1770 -93.8907 117° Southeast 469 540 39,000  Level FlightAware ADS-B
Sat 11:02:18 PM 32.1606 -93.8521 116° Southeast 468 539 39,000  Level FlightAware ADS-B
Sat 11:02:31 PM 32.1475 -93.8213 117° Southeast 469 540 39,000  Level FlightAware ADS-B
Sat 11:03:00 PM 32.1193 -93.7549 116° Southeast 469 540 39,000  Level FlightAware ADS-B (KHOU)
Sat 11:03:01 PM 32.1212 -93.7595 117° Southeast 470 541 39,000  Level FlightAware ADS-B
Sat 11:03:29 PM 32.0902 -93.6867 116° Southeast 468 539 39,000  Level FlightAware ADS-B (KHOU)
Sat 11:03:31 PM 32.0886 -93.6828 117° Southeast 469 540 39,000  Level FlightAware ADS-B
Sat 11:04:00 PM 32.0607 -93.6174 116° Southeast 469 540 39,000  Level FlightAware ADS-B (KHOU)
Sat 11:04:11 PM 32.0507 -93.5942 117° Southeast 470 541 39,000  Level FlightAware ADS-B
Sat 11:04:29 PM 32.0357 -93.5590 116° Southeast 470 541 39,000  Level FlightAware ADS-B (KHOU)
Sat 11:05:00 PM 32.0013 -93.4784 117° Southeast 470 541 39,000  Level FlightAware ADS-B
Sat 11:05:23 PM 31.9809 -93.4308 116° Southeast 470 541 39,000  Level FlightAware ADS-B (KHOU)
Sat 11:05:31 PM 31.9718 -93.4096 117° Southeast 470 541 39,000  Level FlightAware ADS-B
Sat 11:05:55 PM 31.9524 -93.3644 116° Southeast 470 541 39,000  Level FlightAware ADS-B (KHOU)
Sat 11:06:29 PM 31.9167 -93.2813 116° Southeast 470 541 39,000  Level FlightAware ADS-B (KHOU)
Sat 11:06:59 PM 31.8850 -93.2079 116° Southeast 471 542 39,000  Level FlightAware ADS-B (KHOU)
Sat 11:07:29 PM 31.8549 -93.1384 116° Southeast 473 544 39,000  Level FlightAware ADS-B (KHOU)
Sat 11:07:59 PM 31.8256 -93.0710 116° Southeast 474 545 39,000  Level FlightAware ADS-B (KHOU)
Sat 11:08:30 PM 31.7952 -93.0010 116° Southeast 474 545 39,000  Level FlightAware ADS-B (KHOU)
Sat 11:08:46 PM 31.7823 -92.9711 116° Southeast 476 548 39,000  Level FlightAware ADS-B (KHOU)
Sat 11:10:24 PM 31.6822 -92.7414 117° Southeast 479 551 39,000  Level FlightAware ADS-B (KHOU)
Sat 11:10:59 PM 31.6454 -92.6575 117° Southeast 477 549 39,000  Level FlightAware ADS-B (KHOU)
Sat 11:11:29 PM 31.6264 -92.6141 117° Southeast 477 549 39,000  Level FlightAware ADS-B (KHOU)
Sat 11:11:59 PM 31.5838 -92.5171 117° Southeast 475 547 39,000  Level FlightAware ADS-B (KHOU)
Sat 11:12:27 PM 31.5688 -92.4830 117° Southeast 474 545 39,000  Level FlightAware ADS-B (KHOU)
Sat 11:12:59 PM 31.5268 -92.3880 117° Southeast 475 547 39,000  Level FlightAware ADS-B (KHOU)
Sat 11:13:29 PM 31.4940 -92.3137 117° Southeast 475 547 39,000  Level FlightAware ADS-B (KHOU)
Sat 11:13:58 PM 31.4644 -92.2469 117° Southeast 474 545 39,000  Level FlightAware ADS-B (KHOU)
Sat 11:14:15 PM 31.4529 -92.2208 117° Southeast 474 545 39,000  Level FlightAware ADS-B (KHOU)
Sat 11:14:59 PM 31.4100 -92.1246 117° Southeast 474 545 39,000  Level FlightAware ADS-B (KHOU)
Sat 11:15:17 PM 31.3852 -92.0689 117° Southeast 475 547 39,000  Level FlightAware ADS-B (KHOU)
Sat 11:16:34 PM 31.3062 -91.8917 117° Southeast 474 545 39,000  Level FlightAware ADS-B (KHOU)
Sat 11:17:03 PM 31.2768 -91.8260 117° Southeast 473 544 39,000  Level FlightAware ADS-B (KHOU)
Sat 11:17:35 PM 31.2448 -91.7548 117° Southeast 471 542 39,000  Level FlightAware ADS-B (KHOU)
Sat 11:18:04 PM 31.2152 -91.6891 117° Southeast 471 542 39,000  Level FlightAware ADS-B (KHOU)
Sat 11:18:09 PM 31.2115 -91.6807 117° Southeast 471 542 39,000  Level FlightAware ADS-B (KHOU)
Sat 11:19:28 PM 31.1408 -91.5258 117° Southeast 472 543 39,000  Level Houston Center
Sat 11:20:28 PM 31.0756 -91.3828 118° Southeast 471 542 39,000  Level Houston Center
Sat 11:21:28 PM 31.0150 -91.2478 118° Southeast 471 542 39,000  Level Houston Center
Sat 11:22:29 PM 30.9561 -91.1233 119° Southeast 471 542 39,000  Level Houston Center
Sat 11:23:29 PM 30.8933 -90.9789 117° Southeast 471 542 39,000  Level Houston Center
Sat 11:24:30 PM 30.8317 -90.8456 118° Southeast 470 541 39,000  Level Houston Center
Sat 11:25:30 PM 30.7700 -90.7114 118° Southeast 470 541 39,000  Level Houston Center
Sat 11:26:30 PM 30.7072 -90.5772 119° Southeast 471 542 39,000 -50 Level Houston Center
Sat 11:27:31 PM 30.6447 -90.4406 118° Southeast 476 548 38,900  Descending Houston Center
Sat 11:28:31 PM 30.5808 -90.3036 118° Southeast 479 551 39,000  Climbing Houston Center
Sat 11:29:32 PM 30.5161 -90.1669 119° Southeast 484 557 38,900 -50 Descending Houston Center
Sat 11:30:32 PM 30.4514 -90.0286 118° Southeast 485 558 38,900 50 Level Houston Center
Sat 11:31:33 PM 30.3850 -89.8883 119° Southeast 487 560 39,000 50 Climbing Houston Center
Sat 11:32:33 PM 30.3208 -89.7492 118° Southeast 489 563 39,000  Level Houston Center
Sat 11:33:33 PM 30.2464 -89.5950 119° Southeast 497 572 39,000  Level Houston Center
Sat 11:34:33 PM 30.1819 -89.4581 119° Southeast 493 567 39,000  Level Houston Center
Sat 11:35:34 PM 30.1164 -89.3206 119° Southeast 492 566 39,000  Level Houston Center
Sat 11:36:34 PM 30.0494 -89.1819 119° Southeast 495 570 39,000 -50 Level Houston Center
Sat 11:37:34 PM 29.9833 -89.0447 119° Southeast 492 566 38,900  Descending Houston Center
Sat 11:38:34 PM 29.9175 -88.9072 119° Southeast 492 566 39,000  Climbing Houston Center
Sat 11:39:35 PM 29.8531 -88.7747 119° Southeast 480 552 38,900  Descending Houston Center
Sat 11:40:35 PM 29.7883 -88.6417 119° Southeast 479 551 39,000 50 Climbing Houston Center
Sat 11:41:35 PM 29.7239 -88.5083 119° Southeast 477 549 39,000  Level Houston Center
Sat 11:42:35 PM 29.6583 -88.3744 119° Southeast 477 549 39,000  Level Houston Center
Sat 11:43:36 PM 29.5872 -88.2311 120° Southeast 479 551 39,000  Level Houston Center
Sat 11:44:36 PM 29.5200 -88.0964 120° Southeast 484 557 39,000  Level Houston Center
Sat 11:45:36 PM 29.4542 -87.9606 119° Southeast 485 558 39,000  Level Houston Center
Sat 11:46:37 PM 29.3864 -87.8264 120° Southeast 485 558 39,000 -50 Level Houston Center
Sat 11:47:37 PM 29.3211 -87.6886 118° Southeast 491 565 38,900  Descending Houston Center
Sat 11:48:37 PM 29.2519 -87.5522 120° Southeast 493 567 39,000 50 Climbing Houston Center
Sat 11:49:37 PM 29.1833 -87.4167 120° Southeast 494 568 39,000  Level Houston Center
Sat 11:50:37 PM 29.1136 -87.2797 120° Southeast 495 570 39,000  Level Houston Center
Sat 11:51:38 PM 29.0453 -87.1406 119° Southeast 499 574 39,000  Level Houston Center
Sat 11:52:38 PM 28.9753 -87.0031 120° Southeast 500 575 39,000  Level Houston Center
Sat 11:53:38 PM 28.9047 -86.8650 120° Southeast 501 577 39,000 -43 Level Houston Center
Sat 11:54:56 PM 28.8078 -86.6786 121° Southeast 503 579 38,900  Descending Jacksonville Center
Sat 11:55:56 PM 28.7347 -86.5364 120° Southeast 508 585 39,000 50 Climbing Jacksonville Center
Sat 11:56:56 PM 28.6656 -86.4011 120° Southeast 498 573 39,000  Level Jacksonville Center
Sat 11:57:56 PM 28.5942 -86.2617 120° Southeast 503 579 39,000 -50 Level Jacksonville Center
Sat 11:58:56 PM 28.5225 -86.1222 120° Southeast 503 579 38,900  Descending Jacksonville Center
Sat 11:59:56 PM 28.4486 -85.9878 122° Southeast 503 579 39,000 50 Climbing Jacksonville Center
Sun 12:00:56 AM 28.3769 -85.8461 120° Southeast 503 579 39,000  Level Jacksonville Center
Sun 12:01:56 AM 28.3047 -85.7097 121° Southeast 508 585 39,000  Level Jacksonville Center
Sun 12:04:15 AM 28.1458 -85.4006 120° Southeast 524 603 39,000 -30 Level Miami Center
Sun 12:05:15 AM 28.0706 -85.2586 121° Southeast 525 604 38,900 -50 Descending Miami Center
Sun 12:06:16 AM 27.9994 -85.1153 119° Southeast 525 604 38,900 50 Level Miami Center
Sun 12:07:16 AM 27.9269 -84.9611 118° Southeast 524 603 39,000 50 Climbing Miami Center
Sun 12:08:17 AM 27.8586 -84.8194 119° Southeast 521 600 39,000 -50 Level Miami Center
Sun 12:09:17 AM 27.7869 -84.6761 119° Southeast 521 600 38,900 -50 Descending Miami Center
Sun 12:10:18 AM 27.7183 -84.5342 119° Southeast 521 600 38,900  Level Miami Center
Sun 12:11:18 AM 27.6472 -84.3919 119° Southeast 519 597 38,900 15 Level Miami Center
Sun 12:16:48 AM 27.2469 -83.5881 119° Southeast 517 595 39,000 16 Climbing FlightAware ADS-B
Sun 12:17:27 AM 27.2008 -83.4962 119° Southeast 516 594 39,000  Level FlightAware ADS-B
Sun 12:18:03 AM 27.1600 -83.4154 119° Southeast 517 595 39,000  Level FlightAware ADS-B
Sun 12:21:48 AM 26.8936 -82.8900 120° Southeast 513 590 39,000  Level FlightAware ADS-B
Sun 12:22:30 AM 26.8442 -82.7934 120° Southeast 512 589 39,000 -228 Level FlightAware ADS-B
Sun 12:23:07 AM 26.8016 -82.7102 120° Southeast 513 590 38,700 -711 Descending FlightAware ADS-B
Sun 12:23:46 AM 26.7585 -82.6263 120° Southeast 515 593 38,100 -929 Descending FlightAware ADS-B
Sun 12:24:31 AM 26.7030 -82.5181 120° Southeast 513 590 37,400 -988 Descending FlightAware ADS-B
Sun 12:25:11 AM 26.6580 -82.4307 120° Southeast 502 578 36,700 -1,000 Descending FlightAware ADS-B
Sun 12:25:43 AM 26.6186 -82.3542 120° Southeast 492 566 36,200 -963 Descending FlightAware ADS-B
Sun 12:26:32 AM 26.5632 -82.2472 120° Southeast 487 560 35,400 -955 Descending FlightAware ADS-B
Sun 12:27:11 AM 26.5202 -82.1641 120° Southeast 486 559 34,800 -1,725 Descending FlightAware ADS-B
Sun 12:27:52 AM 26.4745 -82.0760 120° Southeast 483 556 33,100 -2,925 Descending FlightAware ADS-B
Sun 12:28:31 AM 26.4310 -81.9925 120° Southeast 491 565 30,900 -3,075 Descending FlightAware ADS-B
Sun 12:29:12 AM 26.3842 -81.9028 120° Southeast 486 559 29,000 -2,741 Descending FlightAware ADS-B
Sun 12:29:52 AM 26.3464 -81.8307 120° Southeast 481 554 27,200 -2,658 Descending FlightAware ADS-B
Sun 12:30:31 AM 26.3002 -81.7425 120° Southeast 468 539 25,500 -2,586 Descending FlightAware ADS-B
Sun 12:32:46 AM 26.1571 -81.4696 120° Southeast 417 480 19,700 -2,428 Descending FlightAware ADS-B
Sun 12:33:24 AM 26.1264 -81.4117 120° Southeast 419 482 18,500 -2,143 Descending Miami Center
Sun 12:34:24 AM 26.0675 -81.2992 120° Southeast 397 457 16,200 -2,462 Descending Miami Center
Sun 12:35:21 AM 26.0142 -81.1975 120° Southeast 378 435 13,700 -2,458 Descending Miami Center
Sun 12:35:47 AM 25.9939 -81.1589 120° Southeast 373 429 12,800 -2,095 Descending Miami Center
Sun 12:36:24 AM 25.9661 -81.1081 121° Southeast 366 421 11,500 -2,237 Descending Miami Center
Sun 12:36:46 AM 25.9417 -81.0639 122° Southeast 356 410 10,600 -1,082 Descending Miami Center
Sun 12:37:25 AM 25.9211 -81.0147 115° Southeast 343 395 10,400 -393 Descending Miami Center
Sun 12:37:47 AM 25.9122 -80.9733 103° East 291 335 10,200 -1,065 Descending Miami Center
Sun 12:38:27 AM 25.9011 -80.9269 105° East 290 334 9,300 -1,574 Descending Miami Center
Sun 12:38:48 AM 25.8911 -80.8858 105° East 284 327 8,600 -1,500 Descending Miami Center
Sun 12:39:27 AM 25.8811 -80.8436 105° East 281 323 7,800 -1,400 Descending Miami Center
Sun 12:39:48 AM 25.8714 -80.8033 105° East 276 318 7,200 -1,000 Descending Miami Center
Sun 12:40:27 AM 25.8667 -80.7783 102° East 273 314 6,800 -787 Descending Miami Center
Sun 12:40:49 AM 25.8536 -80.7256 105° East 247 284 6,400 -1,180 Descending Miami Center
Sun 12:41:28 AM 25.8450 -80.6914 106° East 233 268 5,600 -1,475 Descending Miami Center
Sun 12:41:50 AM 25.8392 -80.6594 101° East 219 252 4,900 -1,552 Descending Miami Center
Sun 12:42:26 AM 25.8300 -80.6256 107° East 216 249 4,100 -1,574 Descending Miami Center
Sun 12:42:51 AM 25.8222 -80.5956 106° East 204 235 3,300 -1,100 Descending Miami Center
Sun 12:43:26 AM 25.8153 -80.5667 105° East 207 238 3,000 -295 Descending Miami Center
Sun 12:43:52 AM 25.8072 -80.5364 106° East 204 235 3,000  Level Miami Center
Sun 12:44:29 AM 25.8011 -80.5053 102° East 206 237 3,000  Level Miami Center
Sun 12:44:53 AM 25.7944 -80.4753 104° East 201 231 3,000 -610 Level Miami Center
Sun 12:45:28 AM 25.7933 -80.4469 92° East 191 220 2,400 -900 Descending Miami Center
Sun 12:45:53 AM 25.7958 -80.4222 84° East 167 192 2,100 -712 Descending Miami Center
Sun 12:46:27 AM 25.7958 -80.3994 90° East 154 177 1,700 -792 Descending Miami Center
Sun 12:46:46 AM 25.7961 -80.3828 89° East 121 139 1,400 -689 Descending Miami Center
Sun 12:47:28 AM 25.7978 -80.3600 85° East 132 152 1,000 -689 Descending Miami Center
Sun 12:47:47 AM 25.7986 -80.3439 87° East 131 151 700 -712 Descending Miami Center
Sun 12:48:27 AM 25.7994 -80.3197 88° East 131 151 300 -350 Descending Miami Center
Sun 12:49:30 AM 25.8022 -80.2811 85° East 131 151 100 -190 Descending Miami Center

Login

Don't have an account? Register now (free) for customized features, flight alerts, and more!